Terminal Aerodrome Forecast
Issued by NWS Des Moines, IA

Home | Current Version | Previous Version | Text Only | Print | Product List | Glossary On
Versions: 1 2 3 4 5 6 7 8 9 10 11 12 13 14 15 16 17 18 19 20 21 22 23 24 25 26 27 28 29 30 31 32 33 34 35 36 37 38 39 40 41 42 43 44 45 46 47 48 49 50
000
FTUS43 KDMX 261744
TAFALO
TAF
KALO 261744Z 2618/2718 09011KT P6SM SCT015 BKN040
      TEMPO 2620/2624 4SM -SN BKN015 OVC030
     FM270000 34011KT 5SM -SN SCT012 BKN020 OVC030
     FM270300 32011KT P6SM SCT015 BKN030
     FM270900 31010KT P6SM SCT018
     FM271400 33008KT P6SM SKC=

USA.gov is the U.S. government's official web portal to all federal, state and local government web resources and services.